sensor_id;sensor_type;location;lat;lon;timestamp;pressure;altitude;pressure_sealevel;temperature;humidity
48968;BME280;46511;53.148;8.204;2023-12-28T00:02:12;100612.34;;;9.30;100.00
48968;BME280;46511;53.148;8.204;2023-12-28T00:04:44;100613.72;;;9.37;100.00
48968;BME280;46511;53.148;8.204;2023-12-28T00:07:16;100604.91;;;9.37;100.00
48968;BME280;46511;53.148;8.204;2023-12-28T00:09:47;100601.75;;;9.62;100.00
48968;BME280;46511;53.148;8.204;2023-12-28T00:12:18;100603.53;;;9.45;100.00
48968;BME280;46511;53.148;8.204;2023-12-28T00:14:50;100598.41;;;9.42;100.00
48968;BME280;46511;53.148;8.204;2023-12-28T00:17:17;100598.94;;;9.49;100.00
48968;BME280;46511;53.148;8.204;2023-12-28T00:19:48;100611.09;;;9.53;100.00
48968;BME280;46511;53.148;8.204;2023-12-28T00:22:20;100605.09;;;9.50;100.00
48968;BME280;46511;53.148;8.204;2023-12-28T00:24:46;100610.91;;;9.56;100.00
48968;BME280;46511;53.148;8.204;2023-12-28T00:27:18;100609.91;;;9.59;100.00
48968;BME280;46511;53.148;8.204;2023-12-28T00:29:49;100631.13;;;9.59;100.00
48968;BME280;46511;53.148;8.204;2023-12-28T00:32:21;100589.34;;;9.62;100.00
48968;BME280;46511;53.148;8.204;2023-12-28T00:34:52;100595.59;;;9.61;100.00
48968;BME280;46511;53.148;8.204;2023-12-28T00:37:23;100596.78;;;9.56;100.00
48968;BME280;46511;53.148;8.204;2023-12-28T00:39:55;100606.22;;;9.77;100.00
48968;BME280;46511;53.148;8.204;2023-12-28T00:42:26;100613.31;;;9.61;100.00
48968;BME280;46511;53.148;8.204;2023-12-28T00:44:53;100609.22;;;9.71;100.00
48968;BME280;46511;53.148;8.204;2023-12-28T00:47:24;100608.94;;;9.91;100.00
48968;BME280;46511;53.148;8.204;2023-12-28T00:49:56;100627.19;;;9.97;100.00
48968;BME280;46511;53.148;8.204;2023-12-28T00:52:27;100619.66;;;10.06;100.00
48968;BME280;46511;53.148;8.204;2023-12-28T00:54:54;100636.41;;;10.22;100.00
48968;BME280;46511;53.148;8.204;2023-12-28T00:57:20;100628.22;;;9.95;100.00
48968;BME280;46511;53.148;8.204;2023-12-28T00:59:46;100644.13;;;10.26;100.00
48968;BME280;46511;53.148;8.204;2023-12-28T01:02:13;100633.75;;;10.22;100.00
48968;BME280;46511;53.148;8.204;2023-12-28T01:04:39;100643.53;;;10.06;100.00
48968;BME280;46511;53.148;8.204;2023-12-28T01:07:11;100660.72;;;9.98;100.00
48968;BME280;46511;53.148;8.204;2023-12-28T01:09:42;100659.34;;;10.23;100.00
48968;BME280;46511;53.148;8.204;2023-12-28T01:12:13;100655.06;;;10.36;100.00
48968;BME280;46511;53.148;8.204;2023-12-28T01:14:45;100662.44;;;10.31;100.00
48968;BME280;46511;53.148;8.204;2023-12-28T01:17:16;100662.88;;;10.08;100.00
48968;BME280;46511;53.148;8.204;2023-12-28T01:19:49;100667.47;;;10.20;100.00
48968;BME280;46511;53.148;8.204;2023-12-28T01:22:16;100670.91;;;10.22;100.00
48968;BME280;46511;53.148;8.204;2023-12-28T01:24:45;100690.19;;;10.10;100.00
48968;BME280;46511;53.148;8.204;2023-12-28T01:27:12;100690.69;;;10.00;100.00
48968;BME280;46511;53.148;8.204;2023-12-28T01:29:44;100694.13;;;10.34;100.00
48968;BME280;46511;53.148;8.204;2023-12-28T01:32:15;100695.75;;;10.37;100.00
48968;BME280;46511;53.148;8.204;2023-12-28T01:34:47;100687.53;;;10.10;100.00
48968;BME280;46511;53.148;8.204;2023-12-28T01:37:18;100682.97;;;10.12;100.00
48968;BME280;46511;53.148;8.204;2023-12-28T01:39:49;100690.84;;;10.13;100.00
48968;BME280;46511;53.148;8.204;2023-12-28T01:42:21;100680.69;;;10.06;100.00
48968;BME280;46511;53.148;8.204;2023-12-28T01:44:52;100687.69;;;10.07;100.00
48968;BME280;46511;53.148;8.204;2023-12-28T01:47:24;100689.31;;;10.09;100.00
48968;BME280;46511;53.148;8.204;2023-12-28T01:49:56;100690.03;;;10.28;100.00
48968;BME280;46511;53.148;8.204;2023-12-28T01:52:30;100688.28;;;10.12;100.00
48968;BME280;46511;53.148;8.204;2023-12-28T01:55:01;100682.63;;;10.18;100.00
48968;BME280;46511;53.148;8.204;2023-12-28T01:57:29;100681.53;;;10.22;100.00
48968;BME280;46511;53.148;8.204;2023-12-28T02:00:00;100687.47;;;10.27;100.00
48968;BME280;46511;53.148;8.204;2023-12-28T02:02:34;100690.88;;;10.29;100.00
48968;BME280;46511;53.148;8.204;2023-12-28T02:05:07;100681.94;;;10.46;100.00
48968;BME280;46511;53.148;8.204;2023-12-28T02:07:40;100684.03;;;10.25;100.00
48968;BME280;46511;53.148;8.204;2023-12-28T02:10:12;100668.75;;;10.13;100.00
48968;BME280;46511;53.148;8.204;2023-12-28T02:12:38;100679.91;;;10.35;100.00
48968;BME280;46511;53.148;8.204;2023-12-28T02:15:09;100679.81;;;10.52;100.00
48968;BME280;46511;53.148;8.204;2023-12-28T02:17:43;100678.66;;;10.56;100.00
48968;BME280;46511;53.148;8.204;2023-12-28T02:20:21;100666.22;;;10.43;100.00
48968;BME280;46511;53.148;8.204;2023-12-28T02:22:55;100676.19;;;10.53;100.00
48968;BME280;46511;53.148;8.204;2023-12-28T02:25:27;100676.13;;;10.39;100.00
48968;BME280;46511;53.148;8.204;2023-12-28T02:27:59;100690.50;;;10.51;100.00
48968;BME280;46511;53.148;8.204;2023-12-28T02:30:30;100685.66;;;10.43;100.00
48968;BME280;46511;53.148;8.204;2023-12-28T02:36:10;100692.75;;;10.43;100.00
48968;BME280;46511;53.148;8.204;2023-12-28T02:38:44;100669.44;;;10.32;100.00
48968;BME280;46511;53.148;8.204;2023-12-28T02:41:17;100673.91;;;10.32;100.00
48968;BME280;46511;53.148;8.204;2023-12-28T02:43:50;100673.97;;;10.62;100.00
48968;BME280;46511;53.148;8.204;2023-12-28T02:46:22;100671.50;;;10.43;100.00
48968;BME280;46511;53.148;8.204;2023-12-28T02:48:53;100683.97;;;10.56;100.00
48968;BME280;46511;53.148;8.204;2023-12-28T02:51:28;100686.72;;;10.85;100.00
48968;BME280;46511;53.148;8.204;2023-12-28T02:53:59;100675.56;;;10.64;100.00
48968;BME280;46511;53.148;8.204;2023-12-28T02:56:31;100672.69;;;10.97;100.00
48968;BME280;46511;53.148;8.204;2023-12-28T02:59:03;100680.47;;;10.86;100.00
48968;BME280;46511;53.148;8.204;2023-12-28T03:01:35;100668.56;;;10.63;100.00
48968;BME280;46511;53.148;8.204;2023-12-28T03:04:06;100667.69;;;10.63;100.00
48968;BME280;46511;53.148;8.204;2023-12-28T03:06:40;100658.78;;;10.64;100.00
48968;BME280;46511;53.148;8.204;2023-12-28T03:09:11;100668.31;;;10.52;100.00
48968;BME280;46511;53.148;8.204;2023-12-28T03:11:43;100665.81;;;10.49;100.00
48968;BME280;46511;53.148;8.204;2023-12-28T03:14:14;100649.91;;;10.49;100.00
48968;BME280;46511;53.148;8.204;2023-12-28T03:16:46;100668.22;;;10.53;100.00
48968;BME280;46511;53.148;8.204;2023-12-28T03:19:17;100657.19;;;10.75;100.00
48968;BME280;46511;53.148;8.204;2023-12-28T03:21:48;100653.81;;;10.57;100.00
48968;BME280;46511;53.148;8.204;2023-12-28T03:24:20;100651.16;;;10.57;100.00
48968;BME280;46511;53.148;8.204;2023-12-28T03:26:51;100644.66;;;10.63;100.00
48968;BME280;46511;53.148;8.204;2023-12-28T03:29:23;100647.78;;;10.70;100.00
48968;BME280;46511;53.148;8.204;2023-12-28T03:31:55;100661.28;;;10.81;100.00
48968;BME280;46511;53.148;8.204;2023-12-28T03:34:27;100659.13;;;10.57;100.00
48968;BME280;46511;53.148;8.204;2023-12-28T03:37:00;100663.50;;;10.58;100.00
48968;BME280;46511;53.148;8.204;2023-12-28T03:39:32;100642.44;;;10.70;100.00
48968;BME280;46511;53.148;8.204;2023-12-28T03:42:04;100653.63;;;10.61;100.00
48968;BME280;46511;53.148;8.204;2023-12-28T03:44:35;100659.31;;;10.84;100.00
48968;BME280;46511;53.148;8.204;2023-12-28T03:47:07;100656.69;;;10.69;100.00
48968;BME280;46511;53.148;8.204;2023-12-28T03:49:38;100647.41;;;10.76;100.00
48968;BME280;46511;53.148;8.204;2023-12-28T03:52:10;100656.66;;;10.84;100.00
48968;BME280;46511;53.148;8.204;2023-12-28T03:54:41;100654.44;;;10.77;100.00
48968;BME280;46511;53.148;8.204;2023-12-28T03:57:12;100669.19;;;10.97;100.00
48968;BME280;46511;53.148;8.204;2023-12-28T03:59:44;100667.81;;;10.75;100.00
48968;BME280;46511;53.148;8.204;2023-12-28T04:02:15;100661.75;;;10.73;100.00
48968;BME280;46511;53.148;8.204;2023-12-28T04:04:47;100672.09;;;10.78;100.00
48968;BME280;46511;53.148;8.204;2023-12-28T04:07:19;100662.50;;;10.75;100.00
48968;BME280;46511;53.148;8.204;2023-12-28T04:09:50;100665.88;;;10.93;100.00
48968;BME280;46511;53.148;8.204;2023-12-28T04:12:21;100673.63;;;10.82;100.00
48968;BME280;46511;53.148;8.204;2023-12-28T04:14:53;100658.09;;;10.90;100.00
48968;BME280;46511;53.148;8.204;2023-12-28T04:17:19;100661.75;;;10.87;100.00
48968;BME280;46511;53.148;8.204;2023-12-28T04:19:50;100649.38;;;11.02;100.00
48968;BME280;46511;53.148;8.204;2023-12-28T04:22:22;100652.81;;;11.19;100.00
48968;BME280;46511;53.148;8.204;2023-12-28T04:24:54;100645.91;;;10.72;100.00
48968;BME280;46511;53.148;8.204;2023-12-28T04:27:25;100640.44;;;11.03;100.00
48968;BME280;46511;53.148;8.204;2023-12-28T04:29:56;100636.97;;;10.73;100.00
48968;BME280;46511;53.148;8.204;2023-12-28T04:32:28;100631.50;;;11.04;100.00
48968;BME280;46511;53.148;8.204;2023-12-28T04:34:59;100650.84;;;10.78;100.00
48968;BME280;46511;53.148;8.204;2023-12-28T04:37:31;100641.56;;;10.85;100.00
48968;BME280;46511;53.148;8.204;2023-12-28T04:40:03;100631.69;;;10.87;100.00
48968;BME280;46511;53.148;8.204;2023-12-28T04:42:35;100633.72;;;10.68;100.00
48968;BME280;46511;53.148;8.204;2023-12-28T04:45:07;100634.16;;;10.90;100.00
48968;BME280;46511;53.148;8.204;2023-12-28T04:47:39;100630.38;;;10.94;100.00
48968;BME280;46511;53.148;8.204;2023-12-28T04:50:11;100613.28;;;10.84;100.00
48968;BME280;46511;53.148;8.204;2023-12-28T04:52:42;100605.53;;;11.09;100.00
48968;BME280;46511;53.148;8.204;2023-12-28T04:55:13;100590.59;;;10.93;100.00
48968;BME280;46511;53.148;8.204;2023-12-28T04:57:45;100603.78;;;10.94;100.00
48968;BME280;46511;53.148;8.204;2023-12-28T05:00:16;100605.41;;;10.97;100.00
48968;BME280;46511;53.148;8.204;2023-12-28T05:02:42;100608.06;;;10.97;100.00
48968;BME280;46511;53.148;8.204;2023-12-28T05:05:14;100610.25;;;11.04;100.00
48968;BME280;46511;53.148;8.204;2023-12-28T05:07:40;100611.56;;;10.83;100.00
48968;BME280;46511;53.148;8.204;2023-12-28T05:10:12;100604.47;;;11.12;100.00
48968;BME280;46511;53.148;8.204;2023-12-28T05:12:43;100610.63;;;10.98;100.00
48968;BME280;46511;53.148;8.204;2023-12-28T05:15:14;100604.44;;;10.98;100.00
48968;BME280;46511;53.148;8.204;2023-12-28T05:17:46;100604.66;;;10.95;100.00
48968;BME280;46511;53.148;8.204;2023-12-28T05:20:18;100600.22;;;11.09;100.00
48968;BME280;46511;53.148;8.204;2023-12-28T05:22:49;100604.97;;;11.19;100.00
48968;BME280;46511;53.148;8.204;2023-12-28T05:25:21;100598.41;;;11.10;100.00
48968;BME280;46511;53.148;8.204;2023-12-28T05:27:52;100608.91;;;10.97;100.00
48968;BME280;46511;53.148;8.204;2023-12-28T05:30:23;100610.44;;;11.15;100.00
48968;BME280;46511;53.148;8.204;2023-12-28T05:32:55;100613.50;;;11.09;100.00
48968;BME280;46511;53.148;8.204;2023-12-28T05:35:26;100608.72;;;11.14;100.00
48968;BME280;46511;53.148;8.204;2023-12-28T05:37:57;100608.72;;;11.14;100.00
48968;BME280;46511;53.148;8.204;2023-12-28T05:40:28;100635.06;;;11.19;100.00
48968;BME280;46511;53.148;8.204;2023-12-28T05:43:00;100623.72;;;11.58;100.00
48968;BME280;46511;53.148;8.204;2023-12-28T05:45:31;100620.03;;;11.47;100.00
48968;BME280;46511;53.148;8.204;2023-12-28T05:48:03;100627.13;;;11.60;100.00
48968;BME280;46511;53.148;8.204;2023-12-28T05:50:34;100646.50;;;11.62;100.00
48968;BME280;46511;53.148;8.204;2023-12-28T05:53:06;100636.81;;;11.90;100.00
48968;BME280;46511;53.148;8.204;2023-12-28T05:55:37;100624.28;;;11.63;100.00
48968;BME280;46511;53.148;8.204;2023-12-28T05:58:09;100619.75;;;11.51;100.00
48968;BME280;46511;53.148;8.204;2023-12-28T06:00:41;100622.84;;;11.72;100.00
48968;BME280;46511;53.148;8.204;2023-12-28T06:03:12;100612.31;;;11.85;100.00
48968;BME280;46511;53.148;8.204;2023-12-28T06:05:44;100623.13;;;11.82;100.00
48968;BME280;46511;53.148;8.204;2023-12-28T06:08:15;100619.03;;;11.76;100.00
48968;BME280;46511;53.148;8.204;2023-12-28T06:10:46;100635.31;;;11.86;100.00
48968;BME280;46511;53.148;8.204;2023-12-28T06:13:18;100638.72;;;11.88;100.00
48968;BME280;46511;53.148;8.204;2023-12-28T06:15:49;100627.13;;;11.89;100.00
48968;BME280;46511;53.148;8.204;2023-12-28T06:18:20;100626.19;;;11.76;100.00
48968;BME280;46511;53.148;8.204;2023-12-28T06:20:53;100630.25;;;11.95;100.00
48968;BME280;46511;53.148;8.204;2023-12-28T06:23:24;100645.56;;;11.63;100.00
48968;BME280;46511;53.148;8.204;2023-12-28T06:25:55;100633.59;;;11.85;100.00
48968;BME280;46511;53.148;8.204;2023-12-28T06:28:27;100632.34;;;11.90;100.00
48968;BME280;46511;53.148;8.204;2023-12-28T06:30:58;100649.63;;;11.97;100.00
48968;BME280;46511;53.148;8.204;2023-12-28T06:33:34;100634.28;;;12.01;100.00
48968;BME280;46511;53.148;8.204;2023-12-28T06:36:06;100641.53;;;11.99;100.00
48968;BME280;46511;53.148;8.204;2023-12-28T06:38:37;100642.53;;;11.55;100.00
48968;BME280;46511;53.148;8.204;2023-12-28T06:41:12;100636.44;;;11.82;100.00
48968;BME280;46511;53.148;8.204;2023-12-28T06:43:43;100634.53;;;11.69;100.00
48968;BME280;46511;53.148;8.204;2023-12-28T06:46:15;100640.63;;;11.86;100.00
48968;BME280;46511;53.148;8.204;2023-12-28T06:48:46;100669.69;;;11.74;100.00
48968;BME280;46511;53.148;8.204;2023-12-28T06:51:18;100665.00;;;12.07;100.00
48968;BME280;46511;53.148;8.204;2023-12-28T06:53:50;100644.34;;;12.10;100.00
48968;BME280;46511;53.148;8.204;2023-12-28T06:56:22;100640.56;;;12.14;100.00
48968;BME280;46511;53.148;8.204;2023-12-28T06:58:53;100639.63;;;12.01;100.00
48968;BME280;46511;53.148;8.204;2023-12-28T07:01:24;100648.09;;;11.93;100.00
48968;BME280;46511;53.148;8.204;2023-12-28T07:03:56;100659.97;;;12.02;100.00
48968;BME280;46511;53.148;8.204;2023-12-28T07:06:27;100636.72;;;12.18;100.00
48968;BME280;46511;53.148;8.204;2023-12-28T07:08:58;100628.94;;;12.15;100.00
48968;BME280;46511;53.148;8.204;2023-12-28T07:11:25;100643.38;;;12.11;100.00
48968;BME280;46511;53.148;8.204;2023-12-28T07:13:57;100637.88;;;12.14;100.00
48968;BME280;46511;53.148;8.204;2023-12-28T07:16:29;100645.66;;;12.17;100.00
48968;BME280;46511;53.148;8.204;2023-12-28T07:19:00;100640.31;;;12.44;100.00
48968;BME280;46511;53.148;8.204;2023-12-28T07:21:32;100644.19;;;11.99;100.00
48968;BME280;46511;53.148;8.204;2023-12-28T07:24:03;100658.03;;;12.18;100.00
48968;BME280;46511;53.148;8.204;2023-12-28T07:26:35;100635.38;;;12.25;100.00
48968;BME280;46511;53.148;8.204;2023-12-28T07:29:06;100648.22;;;12.46;100.00
48968;BME280;46511;53.148;8.204;2023-12-28T07:31:38;100621.72;;;12.03;100.00
48968;BME280;46511;53.148;8.204;2023-12-28T07:34:09;100631.47;;;12.04;100.00
48968;BME280;46511;53.148;8.204;2023-12-28T07:36:41;100618.69;;;12.09;100.00
48968;BME280;46511;53.148;8.204;2023-12-28T07:39:14;100648.53;;;12.14;100.00
48968;BME280;46511;53.148;8.204;2023-12-28T07:41:46;100627.13;;;12.16;100.00
48968;BME280;46511;53.148;8.204;2023-12-28T07:44:17;100648.72;;;12.11;100.00
48968;BME280;46511;53.148;8.204;2023-12-28T07:46:48;100632.56;;;12.14;100.00
48968;BME280;46511;53.148;8.204;2023-12-28T07:49:21;100642.16;;;12.17;100.00
48968;BME280;46511;53.148;8.204;2023-12-28T07:51:53;100637.88;;;12.41;100.00
48968;BME280;46511;53.148;8.204;2023-12-28T07:54:24;100675.59;;;12.21;100.00
48968;BME280;46511;53.148;8.204;2023-12-28T07:56:55;100637.81;;;12.28;100.00
48968;BME280;46511;53.148;8.204;2023-12-28T07:59:27;100661.91;;;12.27;100.00
48968;BME280;46511;53.148;8.204;2023-12-28T08:01:58;100633.63;;;12.51;100.00
48968;BME280;46511;53.148;8.204;2023-12-28T08:04:30;100653.88;;;12.54;100.00
48968;BME280;46511;53.148;8.204;2023-12-28T08:07:02;100641.66;;;12.24;100.00
48968;BME280;46511;53.148;8.204;2023-12-28T08:09:33;100663.88;;;12.50;100.00
48968;BME280;46511;53.148;8.204;2023-12-28T08:12:06;100658.38;;;12.66;100.00
48968;BME280;46511;53.148;8.204;2023-12-28T08:14:32;100633.19;;;12.45;100.00
48968;BME280;46511;53.148;8.204;2023-12-28T08:17:04;100642.66;;;12.49;100.00
48968;BME280;46511;53.148;8.204;2023-12-28T08:19:35;100650.53;;;12.38;100.00
48968;BME280;46511;53.148;8.204;2023-12-28T08:22:01;100654.00;;;12.65;100.00
48968;BME280;46511;53.148;8.204;2023-12-28T08:24:33;100654.75;;;12.67;100.00
48968;BME280;46511;53.148;8.204;2023-12-28T08:27:07;100648.13;;;12.60;100.00
48968;BME280;46511;53.148;8.204;2023-12-28T08:29:39;100643.91;;;12.70;100.00
48968;BME280;46511;53.148;8.204;2023-12-28T08:32:12;100648.34;;;12.57;100.00
48968;BME280;46511;53.148;8.204;2023-12-28T08:34:44;100652.56;;;12.34;100.00
48968;BME280;46511;53.148;8.204;2023-12-28T08:37:16;100646.06;;;12.91;100.00
48968;BME280;46511;53.148;8.204;2023-12-28T08:39:47;100668.72;;;13.36;100.00
48968;BME280;46511;53.148;8.204;2023-12-28T08:42:19;100658.88;;;13.11;100.00
48968;BME280;46511;53.148;8.204;2023-12-28T08:44:51;100658.66;;;13.01;100.00
48968;BME280;46511;53.148;8.204;2023-12-28T08:47:23;100661.69;;;13.22;100.00
48968;BME280;46511;53.148;8.204;2023-12-28T08:49:55;100663.44;;;12.83;100.00
48968;BME280;46511;53.148;8.204;2023-12-28T08:52:26;100662.28;;;13.13;100.00
48968;BME280;46511;53.148;8.204;2023-12-28T08:54:58;100670.44;;;13.37;100.00
48968;BME280;46511;53.148;8.204;2023-12-28T08:57:30;100690.91;;;13.24;100.00
48968;BME280;46511;53.148;8.204;2023-12-28T09:00:03;100692.19;;;13.43;100.00
48968;BME280;46511;53.148;8.204;2023-12-28T09:02:36;100665.41;;;13.32;100.00
48968;BME280;46511;53.148;8.204;2023-12-28T09:05:09;100682.16;;;13.09;100.00
48968;BME280;46511;53.148;8.204;2023-12-28T09:07:40;100682.38;;;13.19;100.00
48968;BME280;46511;53.148;8.204;2023-12-28T09:10:14;100694.66;;;13.21;100.00
48968;BME280;46511;53.148;8.204;2023-12-28T09:12:46;100678.06;;;13.16;100.00
48968;BME280;46511;53.148;8.204;2023-12-28T09:15:17;100679.41;;;13.23;100.00
48968;BME280;46511;53.148;8.204;2023-12-28T09:17:49;100678.97;;;13.29;100.00
48968;BME280;46511;53.148;8.204;2023-12-28T09:20:21;100692.41;;;13.40;100.00
48968;BME280;46511;53.148;8.204;2023-12-28T09:22:53;100669.03;;;13.44;100.00
48968;BME280;46511;53.148;8.204;2023-12-28T09:25:27;100672.72;;;13.16;100.00
48968;BME280;46511;53.148;8.204;2023-12-28T09:27:58;100694.00;;;12.78;100.00
48968;BME280;46511;53.148;8.204;2023-12-28T09:30:29;100678.75;;;13.32;100.00
48968;BME280;46511;53.148;8.204;2023-12-28T09:33:01;100676.81;;;13.34;100.00
48968;BME280;46511;53.148;8.204;2023-12-28T09:35:32;100702.41;;;12.99;100.00
48968;BME280;46511;53.148;8.204;2023-12-28T09:38:04;100694.94;;;13.04;100.00
48968;BME280;46511;53.148;8.204;2023-12-28T09:40:35;100714.56;;;13.03;100.00
48968;BME280;46511;53.148;8.204;2023-12-28T09:43:15;100679.84;;;12.77;100.00
48968;BME280;46511;53.148;8.204;2023-12-28T09:45:55;100698.63;;;12.88;100.00
48968;BME280;46511;53.148;8.204;2023-12-28T09:48:26;100716.81;;;13.09;100.00
48968;BME280;46511;53.148;8.204;2023-12-28T09:50:59;100703.03;;;12.90;100.00
48968;BME280;46511;53.148;8.204;2023-12-28T09:53:30;100714.16;;;13.09;100.00
48968;BME280;46511;53.148;8.204;2023-12-28T09:56:02;100704.44;;;13.08;100.00
48968;BME280;46511;53.148;8.204;2023-12-28T09:58:34;100707.69;;;13.38;100.00
48968;BME280;46511;53.148;8.204;2023-12-28T10:01:07;100712.00;;;13.14;100.00
48968;BME280;46511;53.148;8.204;2023-12-28T10:03:40;100718.81;;;13.05;100.00
48968;BME280;46511;53.148;8.204;2023-12-28T10:06:12;100714.47;;;13.17;100.00
48968;BME280;46511;53.148;8.204;2023-12-28T10:08:46;100732.53;;;13.26;100.00
48968;BME280;46511;53.148;8.204;2023-12-28T10:11:21;100718.66;;;13.34;100.00
48968;BME280;46511;53.148;8.204;2023-12-28T10:13:53;100714.19;;;13.34;100.00
48968;BME280;46511;53.148;8.204;2023-12-28T10:16:19;100731.41;;;13.16;100.00
48968;BME280;46511;53.148;8.204;2023-12-28T10:18:51;100725.91;;;13.70;100.00
48968;BME280;46511;53.148;8.204;2023-12-28T10:21:23;100718.75;;;13.45;100.00
48968;BME280;46511;53.148;8.204;2023-12-28T10:23:54;100708.09;;;13.45;100.00
48968;BME280;46511;53.148;8.204;2023-12-28T10:26:26;100723.81;;;13.50;100.00
48968;BME280;46511;53.148;8.204;2023-12-28T10:29:01;100730.41;;;13.69;100.00
48968;BME280;46511;53.148;8.204;2023-12-28T10:31:34;100716.13;;;13.58;100.00
48968;BME280;46511;53.148;8.204;2023-12-28T10:34:06;100717.41;;;13.65;100.00
48968;BME280;46511;53.148;8.204;2023-12-28T10:36:37;100719.94;;;13.79;100.00
48968;BME280;46511;53.148;8.204;2023-12-28T10:39:12;100719.66;;;14.08;100.00
48968;BME280;46511;53.148;8.204;2023-12-28T10:41:50;100718.47;;;13.75;100.00
48968;BME280;46511;53.148;8.204;2023-12-28T10:44:25;100721.78;;;13.40;100.00
48968;BME280;46511;53.148;8.204;2023-12-28T10:47:02;100724.00;;;13.72;100.00
48968;BME280;46511;53.148;8.204;2023-12-28T10:49:39;100718.69;;;13.47;100.00
48968;BME280;46511;53.148;8.204;2023-12-28T10:52:14;100741.31;;;13.41;100.00
48968;BME280;46511;53.148;8.204;2023-12-28T10:54:52;100725.28;;;13.79;100.00
48968;BME280;46511;53.148;8.204;2023-12-28T11:00:34;100740.88;;;13.60;100.00
48968;BME280;46511;53.148;8.204;2023-12-28T11:03:10;100735.13;;;13.40;100.00
48968;BME280;46511;53.148;8.204;2023-12-28T11:05:43;100725.91;;;13.70;100.00
48968;BME280;46511;53.148;8.204;2023-12-28T11:08:17;100723.22;;;13.83;100.00
48968;BME280;46511;53.148;8.204;2023-12-28T11:10:50;100718.09;;;13.92;100.00
48968;BME280;46511;53.148;8.204;2023-12-28T11:13:22;100717.16;;;13.93;100.00
48968;BME280;46511;53.148;8.204;2023-12-28T11:15:54;100708.81;;;13.72;100.00
48968;BME280;46511;53.148;8.204;2023-12-28T11:18:27;100711.75;;;14.06;100.00
48968;BME280;46511;53.148;8.204;2023-12-28T11:20:59;100713.13;;;13.75;100.00
48968;BME280;46511;53.148;8.204;2023-12-28T11:23:31;100704.00;;;13.90;100.00
48968;BME280;46511;53.148;8.204;2023-12-28T11:26:02;100708.63;;;13.63;100.00
48968;BME280;46511;53.148;8.204;2023-12-28T11:28:34;100711.59;;;13.71;100.00
48968;BME280;46511;53.148;8.204;2023-12-28T11:31:05;100711.53;;;13.60;100.00
48968;BME280;46511;53.148;8.204;2023-12-28T11:33:43;100721.44;;;13.70;100.00
48968;BME280;46511;53.148;8.204;2023-12-28T11:36:21;100721.53;;;13.94;100.00
48968;BME280;46511;53.148;8.204;2023-12-28T11:38:56;100714.41;;;13.57;100.00
48968;BME280;46511;53.148;8.204;2023-12-28T11:41:33;100734.66;;;13.21;100.00
48968;BME280;46511;53.148;8.204;2023-12-28T11:44:07;100706.94;;;13.36;100.00
48968;BME280;46511;53.148;8.204;2023-12-28T11:46:38;100724.25;;;13.56;100.00
48968;BME280;46511;53.148;8.204;2023-12-28T11:49:09;100717.19;;;13.68;100.00
48968;BME280;46511;53.148;8.204;2023-12-28T11:51:37;100710.31;;;13.64;100.00
48968;BME280;46511;53.148;8.204;2023-12-28T11:54:10;100713.09;;;13.24;100.00
48968;BME280;46511;53.148;8.204;2023-12-28T11:56:36;100722.50;;;13.42;100.00
48968;BME280;46511;53.148;8.204;2023-12-28T11:59:08;100717.06;;;13.31;100.00
48968;BME280;46511;53.148;8.204;2023-12-28T12:01:41;100710.94;;;13.80;100.00
48968;BME280;46511;53.148;8.204;2023-12-28T12:04:12;100701.13;;;13.81;100.00
48968;BME280;46511;53.148;8.204;2023-12-28T12:06:44;100705.53;;;13.43;100.00
48968;BME280;46511;53.148;8.204;2023-12-28T12:09:17;100707.38;;;13.56;100.00
48968;BME280;46511;53.148;8.204;2023-12-28T12:11:53;100696.75;;;13.80;100.00
48968;BME280;46511;53.148;8.204;2023-12-28T12:14:25;100711.84;;;13.42;100.00
48968;BME280;46511;53.148;8.204;2023-12-28T12:16:56;100715.06;;;13.48;100.00
48968;BME280;46511;53.148;8.204;2023-12-28T12:19:29;100708.19;;;13.43;100.00
48968;BME280;46511;53.148;8.204;2023-12-28T12:22:01;100704.59;;;13.19;100.00
48968;BME280;46511;53.148;8.204;2023-12-28T12:24:32;100715.78;;;12.84;100.00
48968;BME280;46511;53.148;8.204;2023-12-28T12:27:04;100706.28;;;13.33;100.00
48968;BME280;46511;53.148;8.204;2023-12-28T12:29:31;100693.69;;;13.60;100.00
48968;BME280;46511;53.148;8.204;2023-12-28T12:32:02;100712.00;;;13.14;100.00
48968;BME280;46511;53.148;8.204;2023-12-28T12:34:34;100710.03;;;13.30;100.00
48968;BME280;46511;53.148;8.204;2023-12-28T12:37:06;100696.69;;;13.56;100.00
48968;BME280;46511;53.148;8.204;2023-12-28T12:39:37;100700.09;;;13.20;100.00
48968;BME280;46511;53.148;8.204;2023-12-28T12:42:15;100697.94;;;13.12;100.00
48968;BME280;46511;53.148;8.204;2023-12-28T12:44:47;100729.38;;;13.47;100.00
48968;BME280;46511;53.148;8.204;2023-12-28T12:47:19;100706.56;;;13.15;100.00
48968;BME280;46511;53.148;8.204;2023-12-28T12:49:55;100696.69;;;13.56;100.00
48968;BME280;46511;53.148;8.204;2023-12-28T12:52:26;100696.06;;;13.27;100.00
48968;BME280;46511;53.148;8.204;2023-12-28T12:54:58;100699.03;;;13.22;100.00
48968;BME280;46511;53.148;8.204;2023-12-28T12:57:30;100696.91;;;13.27;100.00
48968;BME280;46511;53.148;8.204;2023-12-28T13:00:02;100705.09;;;13.24;100.00
48968;BME280;46511;53.148;8.204;2023-12-28T13:02:37;100705.44;;;13.58;100.00
48968;BME280;46511;53.148;8.204;2023-12-28T13:05:08;100704.91;;;13.53;100.00
48968;BME280;46511;53.148;8.204;2023-12-28T13:07:40;100719.09;;;13.28;100.00
48968;BME280;46511;53.148;8.204;2023-12-28T13:10:12;100712.47;;;13.33;100.00